Time;durP1;ratioP1;P1;durP2;ratioP2;P2;SDS_P1;SDS_P2;PMS_P1;PMS_P2;Temp;Humidity;BMP_temperature;BMP_pressure;BME280_temperature;BME280_humidity;BME280_pressure;Samples;Min_cycle;Max_cycle;Signal;HPM_P1;HPM_P2
2021/07/18 00:01:26;;;;;;;;;;;18.20;1.00;;;;;;5068128;28;19912;-63
2021/07/18 00:03:51;;;;;;;;;;;18.20;1.00;;;;;;5054229;28;19908;-63
2021/07/18 00:06:17;;;;;;;;;;;18.20;1.00;;;;;;5064895;28;20254;-63
2021/07/18 00:08:42;;;;;;;;;;;18.20;1.00;;;;;;5047672;28;19925;-63
2021/07/18 00:11:07;;;;;;;;;;;18.20;1.00;;;;;;5047583;28;19917;-63
2021/07/18 00:13:33;;;;;;;;;;;18.20;1.00;;;;;;5047250;28;19912;-63
2021/07/18 00:15:59;;;;;;;;;;;18.20;1.00;;;;;;5048209;28;19916;-63
2021/07/18 00:18:24;;;;;;;;;;;18.10;1.00;;;;;;5060954;28;19908;-63
2021/07/18 00:20:50;;;;;;;;;;;18.10;1.00;;;;;;5068084;28;19915;-62
2021/07/18 00:23:18;;;;;;;;;;;18.10;1.00;;;;;;5068429;28;20349;-63
2021/07/18 00:25:44;;;;;;;;;;;18.10;1.00;;;;;;5067559;28;19963;-63
2021/07/18 00:28:09;;;;;;;;;;;18.10;1.00;;;;;;5067247;28;19948;-63
2021/07/18 00:30:35;;;;;;;;;;;18.00;1.00;;;;;;5068109;28;19916;-63
2021/07/18 00:33:01;;;;;;;;;;;18.00;1.00;;;;;;5068370;28;19913;-63
2021/07/18 00:35:26;;;;;;;;;;;18.00;1.00;;;;;;5070096;28;19908;-63
2021/07/18 00:37:52;;;;;;;;;;;18.00;1.00;;;;;;5071395;28;19913;-63
2021/07/18 00:40:17;;;;;;;;;;;18.00;1.00;;;;;;5070935;28;20264;-63
2021/07/18 00:42:43;;;;;;;;;;;18.00;1.00;;;;;;5070942;28;20004;-63
2021/07/18 00:45:09;;;;;;;;;;;17.90;1.00;;;;;;5071693;28;20000;-63
2021/07/18 00:47:34;;;;;;;;;;;17.90;1.00;;;;;;5070647;28;19912;-63
2021/07/18 00:50:04;;;;;;;;;;;17.90;1.00;;;;;;5071113;28;19908;-63
2021/07/18 00:52:29;;;;;;;;;;;17.80;1.00;;;;;;5071656;28;20361;-63
2021/07/18 00:54:55;;;;;;;;;;;17.80;1.00;;;;;;5071113;28;19909;-63
2021/07/18 00:57:21;;;;;;;;;;;17.80;1.00;;;;;;5069812;28;20381;-63
2021/07/18 00:59:47;;;;;;;;;;;17.70;1.00;;;;;;5070957;28;20007;-63
2021/07/18 01:02:12;;;;;;;;;;;17.70;1.00;;;;;;5071415;28;20011;-63
2021/07/18 01:04:38;;;;;;;;;;;17.70;1.00;;;;;;5062284;28;20373;-61
2021/07/18 01:07:05;;;;;;;;;;;17.70;1.00;;;;;;5071117;28;19908;-63
2021/07/18 01:09:31;;;;;;;;;;;17.60;1.00;;;;;;5070441;28;20011;-63
2021/07/18 01:11:57;;;;;;;;;;;17.70;1.00;;;;;;5070089;28;20023;-62
2021/07/18 01:14:22;;;;;;;;;;;17.70;1.00;;;;;;5070970;28;20270;-61
2021/07/18 01:16:48;;;;;;;;;;;17.70;1.00;;;;;;5071084;28;19920;-63
2021/07/18 01:19:18;;;;;;;;;;;17.70;1.00;;;;;;5052320;28;20421;-63
2021/07/18 01:21:43;;;;;;;;;;;17.60;1.00;;;;;;5070985;28;19943;-60
2021/07/18 01:24:10;;;;;;;;;;;17.60;1.00;;;;;;5071105;28;19908;-61
2021/07/18 01:26:35;;;;;;;;;;;17.60;1.00;;;;;;5070235;28;19915;-61
2021/07/18 01:29:01;;;;;;;;;;;17.60;1.00;;;;;;5069938;28;19908;-61
2021/07/18 01:31:26;;;;;;;;;;;17.50;1.00;;;;;;5071201;28;20337;-60
2021/07/18 01:33:52;;;;;;;;;;;17.50;1.00;;;;;;5070351;28;19908;-61
2021/07/18 01:36:17;;;;;;;;;;;17.60;1.00;;;;;;5070785;28;19912;-61
2021/07/18 01:38:43;;;;;;;;;;;17.50;1.00;;;;;;5069673;28;20439;-61
2021/07/18 01:41:08;;;;;;;;;;;17.50;1.00;;;;;;5067709;28;19918;-61
2021/07/18 01:43:34;;;;;;;;;;;17.60;1.00;;;;;;5063783;28;20027;-60
2021/07/18 01:46:00;;;;;;;;;;;17.60;1.00;;;;;;5069013;28;20003;-60
2021/07/18 01:48:25;;;;;;;;;;;17.60;1.00;;;;;;5069344;28;19944;-61
2021/07/18 01:50:51;;;;;;;;;;;17.60;1.00;;;;;;5070628;28;19912;-61
2021/07/18 01:53:16;;;;;;;;;;;17.50;1.00;;;;;;5070380;28;19912;-61
2021/07/18 01:55:42;;;;;;;;;;;17.40;1.00;;;;;;5070274;28;20474;-61
2021/07/18 01:58:07;;;;;;;;;;;17.40;1.00;;;;;;5068680;28;19912;-61
2021/07/18 02:00:33;;;;;;;;;;;17.30;1.00;;;;;;5070070;28;20407;-61
2021/07/18 02:02:59;;;;;;;;;;;17.30;1.00;;;;;;5063726;28;19969;-61
2021/07/18 02:05:24;;;;;;;;;;;17.30;1.00;;;;;;5067806;28;20341;-61
2021/07/18 02:07:50;;;;;;;;;;;17.20;1.00;;;;;;5069743;28;20028;-61
2021/07/18 02:10:17;;;;;;;;;;;17.10;1.00;;;;;;5069572;28;20444;-61
2021/07/18 02:12:43;;;;;;;;;;;17.10;1.00;;;;;;5069564;28;19916;-61
2021/07/18 02:15:09;;;;;;;;;;;17.10;1.00;;;;;;5069981;28;19985;-61
2021/07/18 02:17:35;;;;;;;;;;;17.00;1.00;;;;;;5069668;28;20002;-60
2021/07/18 02:20:04;;;;;;;;;;;17.00;1.00;;;;;;5069302;28;20102;-60
2021/07/18 02:22:52;;;;;;;;;;;16.90;1.00;;;;;;5069524;28;19913;-61
2021/07/18 02:25:19;;;;;;;;;;;16.90;1.00;;;;;;5055936;28;19974;-60
2021/07/18 02:27:45;;;;;;;;;;;16.90;1.00;;;;;;5068594;28;19909;-60
2021/07/18 02:30:12;;;;;;;;;;;16.80;1.00;;;;;;5069286;28;19986;-60
2021/07/18 02:32:38;;;;;;;;;;;16.80;1.00;;;;;;5070032;28;19912;-61
2021/07/18 02:35:05;;;;;;;;;;;16.80;1.00;;;;;;5069082;28;20027;-60
2021/07/18 02:37:31;;;;;;;;;;;16.80;1.00;;;;;;5069102;28;19920;-61
2021/07/18 02:39:56;;;;;;;;;;;16.70;1.00;;;;;;5069306;28;20392;-61
2021/07/18 02:42:22;;;;;;;;;;;16.70;1.00;;;;;;5068051;28;20035;-61
2021/07/18 02:44:47;;;;;;;;;;;16.70;1.00;;;;;;5069394;28;19908;-61
2021/07/18 02:47:13;;;;;;;;;;;16.70;1.00;;;;;;5069153;28;19919;-61
2021/07/18 02:49:38;;;;;;;;;;;16.70;1.00;;;;;;5068392;28;19959;-61
2021/07/18 02:52:04;;;;;;;;;;;16.70;1.00;;;;;;5069146;28;19908;-61
2021/07/18 02:54:30;;;;;;;;;;;16.60;1.00;;;;;;5069226;28;19916;-61
2021/07/18 02:56:56;;;;;;;;;;;16.60;1.00;;;;;;5068206;28;19913;-61
2021/07/18 02:59:21;;;;;;;;;;;16.50;1.00;;;;;;5068023;28;19912;-61
2021/07/18 03:01:47;;;;;;;;;;;16.50;1.00;;;;;;5068981;28;19913;-61
2021/07/18 03:04:12;;;;;;;;;;;16.40;1.00;;;;;;5054667;28;19917;-61
2021/07/18 03:06:38;;;;;;;;;;;16.40;1.00;;;;;;5062334;28;20389;-61
2021/07/18 03:09:03;;;;;;;;;;;16.30;1.00;;;;;;5048400;28;19928;-61
2021/07/18 03:11:29;;;;;;;;;;;16.30;1.00;;;;;;5048693;28;20342;-61
2021/07/18 03:13:54;;;;;;;;;;;16.40;1.00;;;;;;5048441;28;19913;-62
2021/07/18 03:16:20;;;;;;;;;;;16.30;1.00;;;;;;5048885;28;20051;-62
2021/07/18 03:18:45;;;;;;;;;;;16.30;1.00;;;;;;5064224;28;19941;-60
2021/07/18 03:21:11;;;;;;;;;;;16.30;1.00;;;;;;5069609;28;20374;-61
2021/07/18 03:23:36;;;;;;;;;;;16.30;1.00;;;;;;5069086;28;19913;-62
2021/07/18 03:26:02;;;;;;;;;;;16.20;1.00;;;;;;5068352;28;19921;-62
2021/07/18 03:28:27;;;;;;;;;;;16.20;1.00;;;;;;5066953;28;19908;-62
2021/07/18 03:30:53;;;;;;;;;;;16.20;1.00;;;;;;5068649;28;19912;-62
2021/07/18 03:33:19;;;;;;;;;;;16.10;1.00;;;;;;5068497;28;19908;-61
2021/07/18 03:35:45;;;;;;;;;;;16.20;1.00;;;;;;5068740;28;20345;-59
2021/07/18 03:38:10;;;;;;;;;;;16.20;1.00;;;;;;5068187;28;19916;-60
2021/07/18 03:40:36;;;;;;;;;;;16.10;1.00;;;;;;5067827;28;19908;-62
2021/07/18 03:43:01;;;;;;;;;;;16.20;1.00;;;;;;5067698;28;19919;-62
2021/07/18 03:45:27;;;;;;;;;;;16.20;1.00;;;;;;5068638;28;20040;-61
2021/07/18 03:47:52;;;;;;;;;;;16.10;1.00;;;;;;5067907;28;20019;-61
2021/07/18 03:50:18;;;;;;;;;;;16.10;1.00;;;;;;5068435;28;19935;-62
2021/07/18 03:52:44;;;;;;;;;;;16.10;1.00;;;;;;5068304;28;20333;-60
2021/07/18 03:55:10;;;;;;;;;;;16.10;1.00;;;;;;5068356;28;19912;-62
2021/07/18 03:57:35;;;;;;;;;;;16.10;1.00;;;;;;5067556;28;19962;-62
2021/07/18 04:00:01;;;;;;;;;;;16.10;1.00;;;;;;5068527;28;19963;-62
2021/07/18 04:02:26;;;;;;;;;;;16.20;1.00;;;;;;5066089;28;19916;-61
2021/07/18 04:04:52;;;;;;;;;;;16.20;1.00;;;;;;5061273;28;20065;-62
2021/07/18 04:07:17;;;;;;;;;;;16.30;1.00;;;;;;5067966;28;19959;-62
2021/07/18 04:09:43;;;;;;;;;;;16.40;1.00;;;;;;5069753;28;19912;-62
2021/07/18 04:12:08;;;;;;;;;;;16.50;1.00;;;;;;5070922;28;19916;-61
2021/07/18 04:14:34;;;;;;;;;;;16.60;1.00;;;;;;5072471;28;19912;-62
2021/07/18 04:16:59;;;;;;;;;;;16.60;1.00;;;;;;5071676;28;19944;-61
2021/07/18 04:19:25;;;;;;;;;;;16.70;1.00;;;;;;5071060;28;20369;-62
2021/07/18 04:21:50;;;;;;;;;;;16.70;1.00;;;;;;5071901;28;19913;-62
2021/07/18 04:24:16;;;;;;;;;;;16.70;1.00;;;;;;5072040;28;20439;-62
2021/07/18 04:26:41;;;;;;;;;;;16.70;1.00;;;;;;5071482;28;19908;-62
2021/07/18 04:29:07;;;;;;;;;;;16.80;1.00;;;;;;5070826;28;19912;-62
2021/07/18 04:31:32;;;;;;;;;;;16.90;1.00;;;;;;5071786;28;19919;-62
2021/07/18 04:33:58;;;;;;;;;;;17.10;1.00;;;;;;5072038;28;19909;-62
2021/07/18 04:36:23;;;;;;;;;;;17.40;1.00;;;;;;5072224;28;20399;-62
2021/07/18 04:38:49;;;;;;;;;;;17.90;1.00;;;;;;5071159;28;19909;-62
2021/07/18 04:41:14;;;;;;;;;;;18.40;1.00;;;;;;5071389;28;19912;-61
2021/07/18 04:43:40;;;;;;;;;;;18.90;99.90;;;;;;5066590;28;19917;-62
2021/07/18 04:46:07;;;;;;;;;;;19.40;99.90;;;;;;5067061;28;19950;-62
2021/07/18 04:48:32;;;;;;;;;;;20.00;1.00;;;;;;5062717;28;19916;-62
2021/07/18 04:50:58;;;;;;;;;;;20.40;99.90;;;;;;5060486;28;20258;-61
2021/07/18 04:53:24;;;;;;;;;;;20.80;99.90;;;;;;5062058;28;20350;-62
2021/07/18 04:55:49;;;;;;;;;;;21.20;1.00;;;;;;5062940;28;19991;-62
2021/07/18 04:58:16;;;;;;;;;;;21.60;1.00;;;;;;5051002;28;20008;-63
2021/07/18 05:00:41;;;;;;;;;;;22.10;99.90;;;;;;5050963;28;19963;-62
2021/07/18 05:03:07;;;;;;;;;;;22.50;32.70;;;;;;5053380;28;19920;-61
2021/07/18 05:05:32;;;;;;;;;;;23.00;1.00;;;;;;5059488;28;19982;-63
2021/07/18 05:08:01;;;;;;;;;;;23.40;1.00;;;;;;5060483;28;19977;-63
2021/07/18 05:10:27;;;;;;;;;;;23.80;1.00;;;;;;5059159;28;19959;-61
2021/07/18 05:12:53;;;;;;;;;;;24.20;1.00;;;;;;5061555;28;19917;-61
2021/07/18 05:15:20;;;;;;;;;;;24.60;1.00;;;;;;5050617;28;19909;-61
2021/07/18 05:17:45;;;;;;;;;;;24.90;1.00;;;;;;5059204;28;19913;-59
2021/07/18 05:20:11;;;;;;;;;;;25.50;1.00;;;;;;5063331;28;19923;-61
2021/07/18 05:22:37;;;;;;;;;;;25.80;1.00;;;;;;5059505;28;19913;-60
2021/07/18 05:25:03;;;;;;;;;;;26.30;99.90;;;;;;5059380;28;20190;-62
2021/07/18 05:27:29;;;;;;;;;;;26.70;99.90;;;;;;5058079;28;20395;-62
2021/07/18 05:29:55;;;;;;;;;;;27.00;99.90;;;;;;5060431;28;19923;-60
2021/07/18 05:32:20;;;;;;;;;;;27.50;99.90;;;;;;5058870;28;19920;-62
2021/07/18 05:34:46;;;;;;;;;;;27.90;99.90;;;;;;5059663;28;20352;-62
2021/07/18 05:37:11;;;;;;;;;;;28.20;99.90;;;;;;5060093;28;19999;-62
2021/07/18 05:39:37;;;;;;;;;;;28.60;99.90;;;;;;5063803;28;20466;-62
2021/07/18 05:42:03;;;;;;;;;;;28.90;99.90;;;;;;5063800;28;19971;-62
2021/07/18 05:44:29;;;;;;;;;;;29.30;99.90;;;;;;5057531;28;19913;-62
2021/07/18 05:46:54;;;;;;;;;;;29.70;99.90;;;;;;5060034;28;19913;-62
2021/07/18 05:49:20;;;;;;;;;;;30.00;99.90;;;;;;5059157;28;19919;-62
2021/07/18 05:51:45;;;;;;;;;;;30.40;99.90;;;;;;5058901;28;20303;-62
2021/07/18 05:54:11;;;;;;;;;;;30.90;99.90;;;;;;5060249;28;20365;-62
2021/07/18 05:56:36;;;;;;;;;;;31.00;99.90;;;;;;5059471;28;19913;-61
2021/07/18 05:59:02;;;;;;;;;;;31.20;99.90;;;;;;5058415;28;19917;-62
2021/07/18 06:01:27;;;;;;;;;;;31.70;99.90;;;;;;5058473;28;19909;-62
2021/07/18 06:03:53;;;;;;;;;;;32.20;99.90;;;;;;5061643;28;20007;-62
2021/07/18 06:06:18;;;;;;;;;;;32.70;99.90;;;;;;5057737;28;20293;-62
2021/07/18 06:08:44;;;;;;;;;;;33.20;99.90;;;;;;5040348;28;20430;-62
2021/07/18 06:11:09;;;;;;;;;;;33.50;99.90;;;;;;5048875;28;19916;-62
2021/07/18 06:13:35;;;;;;;;;;;33.90;99.90;;;;;;5046872;28;19931;-62
2021/07/18 06:16:00;;;;;;;;;;;34.30;99.90;;;;;;5048776;28;20289;-62
2021/07/18 06:18:26;;;;;;;;;;;34.10;99.90;;;;;;5047811;28;20405;-63
2021/07/18 06:20:51;;;;;;;;;;;34.20;99.90;;;;;;5060562;28;19913;-60
2021/07/18 06:23:17;;;;;;;;;;;34.40;99.90;;;;;;5056538;28;19913;-62
2021/07/18 06:25:42;;;;;;;;;;;34.80;99.90;;;;;;5057020;28;19920;-63
2021/07/18 06:28:08;;;;;;;;;;;34.90;99.90;;;;;;5036302;28;19968;-63
2021/07/18 06:30:33;;;;;;;;;;;35.50;99.90;;;;;;5057765;28;19908;-63
2021/07/18 06:32:59;;;;;;;;;;;35.60;99.90;;;;;;5055982;28;19912;-63
2021/07/18 06:35:24;;;;;;;;;;;35.90;99.90;;;;;;5051067;28;20384;-63
2021/07/18 06:37:50;;;;;;;;;;;36.40;99.90;;;;;;5041378;28;19915;-63
2021/07/18 06:40:17;;;;;;;;;;;36.40;99.90;;;;;;5053610;28;19912;-63
2021/07/18 06:42:42;;;;;;;;;;;36.50;99.90;;;;;;5057637;28;19924;-63
2021/07/18 06:45:08;;;;;;;;;;;36.70;99.90;;;;;;5058717;28;19917;-63
2021/07/18 06:47:34;;;;;;;;;;;37.30;99.90;;;;;;5054568;28;19924;-63
2021/07/18 06:49:59;;;;;;;;;;;37.90;99.90;;;;;;5058485;28;19908;-62
2021/07/18 06:52:25;;;;;;;;;;;38.40;99.90;;;;;;5055829;28;19960;-63
2021/07/18 06:54:51;;;;;;;;;;;38.40;99.90;;;;;;5058344;28;20031;-62
2021/07/18 06:57:16;;;;;;;;;;;38.60;99.90;;;;;;5056782;28;20463;-63
2021/07/18 06:59:42;;;;;;;;;;;39.10;99.90;;;;;;5057091;28;19924;-62
2021/07/18 07:02:07;;;;;;;;;;;39.00;99.90;;;;;;5058040;28;20322;-63
2021/07/18 07:04:33;;;;;;;;;;;39.40;99.90;;;;;;5060496;28;19958;-63
2021/07/18 07:06:58;;;;;;;;;;;39.40;99.90;;;;;;5056700;28;19909;-63
2021/07/18 07:09:24;;;;;;;;;;;39.90;99.90;;;;;;5058223;28;19955;-63
2021/07/18 07:11:49;;;;;;;;;;;40.20;99.90;;;;;;5056259;28;20003;-63
2021/07/18 07:14:15;;;;;;;;;;;40.70;99.90;;;;;;5056694;28;19912;-62
2021/07/18 07:16:40;;;;;;;;;;;40.80;99.90;;;;;;5058877;28;19909;-62
2021/07/18 07:19:06;;;;;;;;;;;41.00;99.90;;;;;;5057722;28;20383;-62
2021/07/18 07:21:31;;;;;;;;;;;41.80;99.90;;;;;;5057669;28;19909;-62
2021/07/18 07:23:57;;;;;;;;;;;41.60;99.90;;;;;;5058824;28;19912;-62
2021/07/18 07:26:22;;;;;;;;;;;41.70;99.90;;;;;;5058383;28;19966;-62
2021/07/18 07:28:48;;;;;;;;;;;41.80;99.90;;;;;;5056376;28;19915;-63
2021/07/18 07:31:13;;;;;;;;;;;41.80;99.90;;;;;;5059288;28;19916;-62
2021/07/18 07:33:39;;;;;;;;;;;42.20;99.90;;;;;;5057674;28;19913;-62
2021/07/18 07:36:05;;;;;;;;;;;42.50;99.90;;;;;;5058028;28;20380;-62
2021/07/18 07:38:31;;;;;;;;;;;42.60;99.90;;;;;;5058111;28;19951;-64
2021/07/18 07:40:56;;;;;;;;;;;43.00;99.90;;;;;;5060816;28;19954;-63
2021/07/18 07:43:23;;;;;;;;;;;43.70;99.90;;;;;;5057780;28;20482;-63
2021/07/18 07:45:48;;;;;;;;;;;43.90;99.90;;;;;;5064054;28;19908;-63
2021/07/18 07:48:14;;;;;;;;;;;44.10;99.90;;;;;;5064032;28;20258;-63
2021/07/18 07:50:40;;;;;;;;;;;44.10;96.90;;;;;;5064243;28;19913;-63
2021/07/18 07:53:06;;;;;;;;;;;44.60;95.60;;;;;;5062958;28;19913;-62
2021/07/18 07:55:32;;;;;;;;;;;44.30;92.30;;;;;;5065216;28;19920;-63
2021/07/18 07:57:58;;;;;;;;;;;44.00;88.20;;;;;;5061032;28;20385;-63
2021/07/18 08:00:24;;;;;;;;;;;43.70;84.20;;;;;;5066941;28;19924;-63
2021/07/18 08:02:50;;;;;;;;;;;43.20;78.60;;;;;;5063562;28;20015;-63
2021/07/18 08:05:16;;;;;;;;;;;42.10;74.20;;;;;;5062773;28;19909;-62
2021/07/18 08:07:42;;;;;;;;;;;40.30;70.20;;;;;;5060614;28;20350;-62
2021/07/18 08:10:09;;;;;;;;;;;38.30;69.00;;;;;;5058212;28;19995;-62
2021/07/18 08:12:35;;;;;;;;;;;36.90;70.70;;;;;;5058914;28;19920;-61
2021/07/18 08:15:01;;;;;;;;;;;35.50;90.80;;;;;;5060193;28;20898;-62
2021/07/18 08:17:26;;;;;;;;;;;34.30;78.90;;;;;;5059210;28;19958;-61
2021/07/18 08:19:52;;;;;;;;;;;33.80;85.20;;;;;;5064412;28;20436;-62
2021/07/18 08:22:17;;;;;;;;;;;34.30;90.50;;;;;;5068439;28;19912;-62
2021/07/18 08:24:43;;;;;;;;;;;36.10;92.70;;;;;;5062995;28;20008;-62
2021/07/18 08:27:08;;;;;;;;;;;38.00;94.20;;;;;;5047026;28;19913;-63
2021/07/18 08:29:34;;;;;;;;;;;39.60;95.30;;;;;;5046582;28;19920;-62
2021/07/18 08:31:59;;;;;;;;;;;41.80;96.10;;;;;;5051524;28;19966;-63
2021/07/18 08:34:25;;;;;;;;;;;43.10;94.90;;;;;;5051545;28;19909;-63
2021/07/18 08:36:51;;;;;;;;;;;43.30;92.60;;;;;;5051512;28;19952;-63
2021/07/18 08:39:17;;;;;;;;;;;42.60;89.80;;;;;;5050849;28;20316;-63
2021/07/18 08:41:46;;;;;;;;;;;41.10;84.20;;;;;;5060720;28;19917;-63
2021/07/18 08:44:13;;;;;;;;;;;39.80;82.10;;;;;;5069473;28;20403;-63
2021/07/18 08:46:39;;;;;;;;;;;39.00;81.50;;;;;;5071510;28;19954;-64
2021/07/18 08:49:05;;;;;;;;;;;38.60;83.60;;;;;;5070223;28;20296;-63
2021/07/18 08:51:32;;;;;;;;;;;38.10;82.80;;;;;;5071126;28;19908;-64
2021/07/18 08:53:58;;;;;;;;;;;37.40;84.00;;;;;;5070685;28;19908;-63
2021/07/18 08:56:24;;;;;;;;;;;36.50;86.40;;;;;;5069771;28;19923;-62
2021/07/18 08:58:49;;;;;;;;;;;37.20;90.10;;;;;;5058884;28;19912;-63
2021/07/18 09:01:15;;;;;;;;;;;38.80;91.70;;;;;;5050949;28;20467;-63
2021/07/18 09:03:40;;;;;;;;;;;40.50;92.30;;;;;;5053745;28;20663;-64
2021/07/18 09:06:10;;;;;;;;;;;41.70;92.40;;;;;;5070648;28;19908;-64
2021/07/18 09:08:48;;;;;;;;;;;43.00;92.30;;;;;;5069578;28;19909;-63
2021/07/18 09:11:14;;;;;;;;;;;44.40;91.60;;;;;;5069925;28;20294;-64
2021/07/18 09:13:43;;;;;;;;;;;45.30;89.10;;;;;;5069703;28;20001;-62
2021/07/18 09:16:14;;;;;;;;;;;46.30;84.20;;;;;;5070920;28;20326;-64
2021/07/18 09:18:40;;;;;;;;;;;46.80;79.50;;;;;;5069359;28;20010;-64
2021/07/18 09:21:06;;;;;;;;;;;47.60;75.50;;;;;;5070042;28;20065;-64
2021/07/18 09:23:31;;;;;;;;;;;47.70;70.70;;;;;;5069813;28;20053;-63
2021/07/18 09:26:16;;;;;;;;;;;47.80;82.10;;;;;;5052088;28;19909;-64
2021/07/18 09:28:41;;;;;;;;;;;48.20;59.20;;;;;;5068877;28;19923;-62
2021/07/18 09:31:26;;;;;;;;;;;48.90;56.50;;;;;;5070129;28;19908;-64
2021/07/18 09:34:08;;;;;;;;;;;47.30;48.70;;;;;;5069971;28;19912;-64
2021/07/18 09:36:33;;;;;;;;;;;44.90;43.50;;;;;;5067997;28;19955;-63
2021/07/18 09:39:06;;;;;;;;;;;42.60;39.90;;;;;;5068696;28;19947;-64
2021/07/18 09:41:38;;;;;;;;;;;40.50;39.10;;;;;;5070125;28;20003;-63
2021/07/18 09:44:04;;;;;;;;;;;38.90;40.60;;;;;;5068963;28;19916;-64
2021/07/18 09:46:31;;;;;;;;;;;37.70;42.60;;;;;;5069796;28;19909;-63
2021/07/18 09:48:59;;;;;;;;;;;37.50;46.70;;;;;;5068681;28;19915;-63
2021/07/18 09:51:24;;;;;;;;;;;38.90;52.10;;;;;;5070094;28;20339;-63
2021/07/18 09:54:06;;;;;;;;;;;40.10;54.40;;;;;;5069971;28;19909;-64
2021/07/18 09:56:32;;;;;;;;;;;41.20;56.10;;;;;;5069402;28;19908;-64
2021/07/18 09:58:58;;;;;;;;;;;40.60;54.90;;;;;;5056417;28;20283;-64
2021/07/18 10:01:24;;;;;;;;;;;39.00;53.80;;;;;;5050238;28;19977;-63
2021/07/18 10:03:51;;;;;;;;;;;36.90;54.40;;;;;;5054120;28;20014;-66
2021/07/18 10:06:17;;;;;;;;;;;34.90;55.80;;;;;;5057024;28;19916;-66
2021/07/18 10:08:47;;;;;;;;;;;33.40;58.10;;;;;;5048484;28;19913;-64
2021/07/18 10:11:14;;;;;;;;;;;32.70;63.80;;;;;;5049341;28;20467;-65
2021/07/18 10:13:41;;;;;;;;;;;31.80;69.10;;;;;;5048893;28;20015;-63
2021/07/18 10:16:07;;;;;;;;;;;31.00;74.50;;;;;;5048833;28;19909;-64
2021/07/18 10:18:34;;;;;;;;;;;30.40;82.10;;;;;;5048580;28;19912;-64
2021/07/18 10:21:01;;;;;;;;;;;30.10;88.90;;;;;;5064261;28;20318;-64
2021/07/18 10:23:27;;;;;;;;;;;29.90;92.80;;;;;;5066132;28;19913;-62
2021/07/18 10:25:53;;;;;;;;;;;29.90;96.20;;;;;;5065917;28;20004;-63
2021/07/18 10:28:26;;;;;;;;;;;30.40;98.80;;;;;;5080471;28;20384;-62
2021/07/18 10:30:56;;;;;;;;;;;31.00;99.90;;;;;;5082246;28;19916;-64
2021/07/18 10:33:22;;;;;;;;;;;31.90;99.90;;;;;;5082494;28;19909;-65
2021/07/18 10:35:48;;;;;;;;;;;34.10;99.90;;;;;;5082205;28;19947;-63
2021/07/18 10:38:14;;;;;;;;;;;34.90;99.90;;;;;;5081644;28;20529;-64
2021/07/18 10:40:50;;;;;;;;;;;36.40;99.90;;;;;;5081938;28;19909;-64
2021/07/18 10:43:36;;;;;;;;;;;37.50;99.90;;;;;;5081319;28;19913;-65
2021/07/18 10:46:02;;;;;;;;;;;38.30;99.90;;;;;;5062851;28;20280;-64
2021/07/18 10:48:41;;;;;;;;;;;38.10;99.90;;;;;;5080620;28;19986;-66
2021/07/18 10:51:07;;;;;;;;;;;37.40;98.50;;;;;;5082305;28;20372;-65
2021/07/18 10:53:33;;;;;;;;;;;37.00;97.60;;;;;;5082084;28;19943;-65
2021/07/18 10:56:01;;;;;;;;;;;36.50;96.70;;;;;;5082629;28;20288;-66
2021/07/18 10:58:39;;;;;;;;;;;36.70;96.00;;;;;;5080376;28;20618;-65
2021/07/18 11:01:10;;;;;;;;;;;37.00;95.80;;;;;;5080151;28;20316;-64
2021/07/18 11:03:37;;;;;;;;;;;37.50;95.20;;;;;;5079730;28;19917;-63
2021/07/18 11:06:22;;;;;;;;;;;38.20;95.10;;;;;;5081717;28;20023;-63
2021/07/18 11:09:06;;;;;;;;;;;38.00;93.90;;;;;;5080818;28;20049;-63
2021/07/18 11:11:40;;;;;;;;;;;37.50;93.50;;;;;;5081476;28;20325;-63
2021/07/18 11:14:22;;;;;;;;;;;38.10;92.70;;;;;;5080891;28;20027;-62
2021/07/18 11:16:52;;;;;;;;;;;38.20;91.10;;;;;;5085370;28;20964;-63
2021/07/18 11:19:39;;;;;;;;;;;37.90;88.40;;;;;;5084360;28;20276;-63
2021/07/18 11:22:07;;;;;;;;;;;37.70;85.90;;;;;;5084891;28;20357;-64
2021/07/18 11:24:48;;;;;;;;;;;37.10;82.80;;;;;;5084962;28;19908;-64
2021/07/18 11:27:26;;;;;;;;;;;37.20;82.80;;;;;;5084340;28;19935;-64
2021/07/18 11:29:52;;;;;;;;;;;36.70;80.00;;;;;;5084716;28;20075;-64
2021/07/18 11:32:18;;;;;;;;;;;37.00;79.60;;;;;;5084737;28;19935;-64
2021/07/18 11:34:45;;;;;;;;;;;36.70;78.50;;;;;;5083836;28;19913;-64
2021/07/18 11:37:12;;;;;;;;;;;36.50;77.60;;;;;;5084939;28;20019;-64
2021/07/18 11:39:37;;;;;;;;;;;36.80;76.90;;;;;;5062906;28;19923;-65
2021/07/18 11:42:04;;;;;;;;;;;36.10;74.60;;;;;;5069413;28;19912;-63
2021/07/18 11:44:30;;;;;;;;;;;36.10;74.20;;;;;;5070468;28;19913;-63
2021/07/18 11:46:58;;;;;;;;;;;36.20;75.00;;;;;;5071228;28;19912;-62
2021/07/18 11:49:25;;;;;;;;;;;35.80;73.70;;;;;;5070101;28;19908;-64
2021/07/18 11:51:50;;;;;;;;;;;35.90;73.60;;;;;;5070587;28;19908;-64
2021/07/18 11:54:16;;;;;;;;;;;36.30;73.40;;;;;;5071105;28;19916;-64
2021/07/18 11:56:43;;;;;;;;;;;36.50;73.10;;;;;;5071002;28;19912;-63
2021/07/18 11:59:12;;;;;;;;;;;36.10;71.50;;;;;;5067549;28;19920;-63
2021/07/18 12:01:39;;;;;;;;;;;35.90;89.00;;;;;;5071075;28;19909;-63
2021/07/18 12:04:05;;;;;;;;;;;35.90;71.40;;;;;;5068683;28;19909;-63
2021/07/18 12:06:31;;;;;;;;;;;36.00;71.70;;;;;;5070895;28;19913;-63
2021/07/18 12:09:10;;;;;;;;;;;36.10;72.50;;;;;;5068143;28;19962;-63
2021/07/18 12:11:39;;;;;;;;;;;35.60;72.00;;;;;;5051008;28;19917;-61
2021/07/18 12:14:05;;;;;;;;;;;35.20;71.60;;;;;;5049775;28;20338;-62
2021/07/18 12:16:31;;;;;;;;;;;34.90;71.00;;;;;;5050930;28;20384;-62
2021/07/18 12:18:57;;;;;;;;;;;34.70;70.00;;;;;;5050534;28;19913;-63
2021/07/18 12:21:32;;;;;;;;;;;34.00;69.40;;;;;;5071076;28;19915;-62
2021/07/18 12:24:11;;;;;;;;;;;32.90;69.60;;;;;;5071120;28;20038;-61
2021/07/18 12:26:37;;;;;;;;;;;32.30;72.50;;;;;;5051021;28;20006;-65
2021/07/18 12:29:06;;;;;;;;;;;32.00;76.30;;;;;;5047223;28;20017;-64
2021/07/18 12:31:32;;;;;;;;;;;31.80;77.50;;;;;;5050574;28;20003;-64
2021/07/18 12:33:57;;;;;;;;;;;31.70;79.50;;;;;;5057456;28;20420;-64
2021/07/18 12:36:23;;;;;;;;;;;31.50;81.80;;;;;;5070471;28;20022;-64
2021/07/18 12:38:49;;;;;;;;;;;31.00;84.50;;;;;;5067811;28;19908;-62
2021/07/18 12:41:14;;;;;;;;;;;30.70;88.20;;;;;;5064735;28;20464;-63
2021/07/18 12:43:40;;;;;;;;;;;30.70;90.60;;;;;;5069235;28;20355;-64
2021/07/18 12:46:08;;;;;;;;;;;30.30;90.60;;;;;;5069525;28;20295;-64
2021/07/18 12:48:34;;;;;;;;;;;30.00;92.10;;;;;;5068210;28;19916;-62
2021/07/18 12:51:12;;;;;;;;;;;29.90;93.60;;;;;;5068767;28;19909;-63
2021/07/18 12:53:37;;;;;;;;;;;29.90;95.40;;;;;;5069561;28;19916;-62
2021/07/18 12:56:03;;;;;;;;;;;30.00;96.60;;;;;;5069866;28;20003;-62
2021/07/18 12:58:34;;;;;;;;;;;30.20;97.70;;;;;;5068085;28;19912;-63
2021/07/18 13:01:05;;;;;;;;;;;30.10;97.60;;;;;;5069311;28;19908;-62
2021/07/18 13:03:32;;;;;;;;;;;29.80;98.30;;;;;;5067081;28;20280;-63
2021/07/18 13:06:05;;;;;;;;;;;29.70;98.20;;;;;;5069564;28;20011;-62
2021/07/18 13:08:38;;;;;;;;;;;29.70;99.40;;;;;;5067111;28;19917;-63
2021/07/18 13:11:04;;;;;;;;;;;29.50;99.90;;;;;;5069527;28;19970;-63
2021/07/18 13:13:32;;;;;;;;;;;29.20;99.90;;;;;;5068581;28;19951;-63
2021/07/18 13:16:05;;;;;;;;;;;29.10;99.90;;;;;;5069250;28;20371;-63
2021/07/18 13:18:37;;;;;;;;;;;29.30;99.90;;;;;;5068424;28;19909;-62
2021/07/18 13:21:15;;;;;;;;;;;29.60;99.90;;;;;;5069173;28;19909;-61
2021/07/18 13:23:42;;;;;;;;;;;29.70;99.90;;;;;;5069580;28;19930;-63
2021/07/18 13:26:07;;;;;;;;;;;29.70;99.90;;;;;;5069312;28;20022;-62
2021/07/18 13:28:34;;;;;;;;;;;29.50;99.90;;;;;;5067233;28;20020;-63
2021/07/18 13:30:59;;;;;;;;;;;29.60;99.90;;;;;;5068947;28;19908;-64
2021/07/18 13:33:25;;;;;;;;;;;29.40;99.90;;;;;;5061676;28;19916;-63
2021/07/18 13:35:51;;;;;;;;;;;29.60;99.90;;;;;;5048092;28;19995;-63
2021/07/18 13:38:21;;;;;;;;;;;29.50;99.90;;;;;;5066220;28;20043;-62
2021/07/18 13:40:47;;;;;;;;;;;29.60;99.90;;;;;;5068896;28;19992;-62
2021/07/18 13:43:14;;;;;;;;;;;29.40;99.90;;;;;;5068559;28;19912;-62
2021/07/18 13:45:41;;;;;;;;;;;29.30;99.90;;;;;;5067361;28;20004;-63
2021/07/18 13:48:08;;;;;;;;;;;29.20;99.90;;;;;;5067504;28;20324;-62
2021/07/18 13:50:33;;;;;;;;;;;29.00;99.90;;;;;;5068371;28;20362;-63
2021/07/18 13:52:59;;;;;;;;;;;28.90;99.90;;;;;;5069156;28;19963;-63
2021/07/18 13:55:25;;;;;;;;;;;28.60;99.90;;;;;;5068971;28;19908;-65
2021/07/18 13:57:50;;;;;;;;;;;28.40;99.90;;;;;;5067706;28;19912;-62
2021/07/18 14:00:16;;;;;;;;;;;28.40;99.90;;;;;;5068491;28;20295;-63
2021/07/18 14:02:41;;;;;;;;;;;28.40;99.90;;;;;;5068784;28;19912;-64
2021/07/18 14:05:07;;;;;;;;;;;28.30;99.90;;;;;;5065061;28;19922;-63
2021/07/18 14:07:32;;;;;;;;;;;28.20;99.90;;;;;;5068379;28;20238;-63
2021/07/18 14:09:58;;;;;;;;;;;28.00;99.90;;;;;;5068704;28;20077;-62
2021/07/18 14:12:23;;;;;;;;;;;27.90;99.90;;;;;;5068225;28;19915;-63
2021/07/18 14:14:49;;;;;;;;;;;27.80;99.90;;;;;;5082396;22;19924;-63
2021/07/18 14:17:15;;;;;;;;;;;27.70;99.90;;;;;;5044069;28;19909;-63
2021/07/18 14:19:40;;;;;;;;;;;27.60;99.90;;;;;;5047627;28;20012;-60